sensor_id;sensor_type;location;lat;lon;timestamp;pressure;altitude;pressure_sealevel;temperature;humidity
30819;BME280;17546;42.674;23.284;2023-11-22T00:02:01;94004.88;;;15.02;46.08
30819;BME280;17546;42.674;23.284;2023-11-22T00:04:27;94022.66;;;15.13;46.04
30819;BME280;17546;42.674;23.284;2023-11-22T00:06:52;94006.91;;;14.81;46.53
30819;BME280;17546;42.674;23.284;2023-11-22T00:09:18;94013.78;;;15.01;46.19
30819;BME280;17546;42.674;23.284;2023-11-22T00:11:47;94008.84;;;14.73;46.56
30819;BME280;17546;42.674;23.284;2023-11-22T00:14:12;93991.88;;;14.02;48.14
30819;BME280;17546;42.674;23.284;2023-11-22T00:16:39;93980.66;;;14.29;47.20
30819;BME280;17546;42.674;23.284;2023-11-22T00:19:05;93987.50;;;14.41;47.21
30819;BME280;17546;42.674;23.284;2023-11-22T00:21:31;94000.97;;;14.50;47.17
30819;BME280;17546;42.674;23.284;2023-11-22T00:23:57;93986.22;;;14.55;46.75
30819;BME280;17546;42.674;23.284;2023-11-22T00:26:22;94008.91;;;14.59;46.99
30819;BME280;17546;42.674;23.284;2023-11-22T00:28:48;93970.50;;;14.65;46.55
30819;BME280;17546;42.674;23.284;2023-11-22T00:31:15;94009.63;;;14.94;46.38
30819;BME280;17546;42.674;23.284;2023-11-22T00:33:40;93997.69;;;14.86;46.37
30819;BME280;17546;42.674;23.284;2023-11-22T00:36:06;93973.72;;;14.70;46.24
30819;BME280;17546;42.674;23.284;2023-11-22T00:38:33;93941.78;;;14.36;46.22
30819;BME280;17546;42.674;23.284;2023-11-22T00:41:01;94014.63;;;14.75;46.55
30819;BME280;17546;42.674;23.284;2023-11-22T00:43:27;94013.03;;;14.79;46.45
30819;BME280;17546;42.674;23.284;2023-11-22T00:45:53;93988.13;;;14.60;46.63
30819;BME280;17546;42.674;23.284;2023-11-22T00:48:18;94006.97;;;14.54;46.47
30819;BME280;17546;42.674;23.284;2023-11-22T00:50:44;93993.44;;;14.72;46.16
30819;BME280;17546;42.674;23.284;2023-11-22T00:53:10;93998.63;;;14.54;46.93
30819;BME280;17546;42.674;23.284;2023-11-22T00:55:35;93999.00;;;14.72;46.52
30819;BME280;17546;42.674;23.284;2023-11-22T00:58:01;93977.91;;;14.63;46.60
30819;BME280;17546;42.674;23.284;2023-11-22T01:00:30;94004.06;;;14.94;46.37
30819;BME280;17546;42.674;23.284;2023-11-22T01:02:55;93999.44;;;14.97;46.00
30819;BME280;17546;42.674;23.284;2023-11-22T01:05:21;93968.22;;;14.77;46.25
30819;BME280;17546;42.674;23.284;2023-11-22T01:07:47;93963.81;;;14.82;46.10
30819;BME280;17546;42.674;23.284;2023-11-22T01:10:13;93972.09;;;14.95;45.84
30819;BME280;17546;42.674;23.284;2023-11-22T01:12:39;93984.06;;;15.03;45.93
30819;BME280;17546;42.674;23.284;2023-11-22T01:15:05;93940.41;;;14.85;45.56
30819;BME280;17546;42.674;23.284;2023-11-22T01:17:31;93974.41;;;15.04;45.98
30819;BME280;17546;42.674;23.284;2023-11-22T01:19:56;93984.13;;;15.11;45.97
30819;BME280;17546;42.674;23.284;2023-11-22T01:22:23;93969.84;;;14.94;46.24
30819;BME280;17546;42.674;23.284;2023-11-22T01:24:49;93960.13;;;14.87;46.03
30819;BME280;17546;42.674;23.284;2023-11-22T01:27:14;93972.16;;;15.03;46.31
30819;BME280;17546;42.674;23.284;2023-11-22T01:29:40;93981.19;;;14.75;46.35
30819;BME280;17546;42.674;23.284;2023-11-22T01:32:07;93976.16;;;14.94;45.69
30819;BME280;17546;42.674;23.284;2023-11-22T01:34:32;93908.56;;;14.59;45.71
30819;BME280;17546;42.674;23.284;2023-11-22T01:36:57;93902.75;;;14.71;45.84
30819;BME280;17546;42.674;23.284;2023-11-22T01:39:23;93920.75;;;14.70;45.72
30819;BME280;17546;42.674;23.284;2023-11-22T01:41:48;93954.56;;;15.08;45.52
30819;BME280;17546;42.674;23.284;2023-11-22T01:44:15;93933.41;;;14.92;45.75
30819;BME280;17546;42.674;23.284;2023-11-22T01:46:42;93953.50;;;15.19;45.68
30819;BME280;17546;42.674;23.284;2023-11-22T01:49:09;93958.94;;;15.24;45.80
30819;BME280;17546;42.674;23.284;2023-11-22T01:51:35;93946.72;;;14.85;46.21
30819;BME280;17546;42.674;23.284;2023-11-22T01:54:01;93964.31;;;15.01;46.04
30819;BME280;17546;42.674;23.284;2023-11-22T01:56:28;93969.25;;;15.08;45.83
30819;BME280;17546;42.674;23.284;2023-11-22T01:58:55;93915.78;;;14.76;45.92
30819;BME280;17546;42.674;23.284;2023-11-22T02:01:22;93931.66;;;14.46;46.48
30819;BME280;17546;42.674;23.284;2023-11-22T02:03:47;93934.84;;;14.64;46.34
30819;BME280;17546;42.674;23.284;2023-11-22T02:06:15;93957.41;;;14.74;46.46
30819;BME280;17546;42.674;23.284;2023-11-22T02:08:44;93937.69;;;14.72;46.17
30819;BME280;17546;42.674;23.284;2023-11-22T02:11:09;93920.22;;;14.71;46.20
30819;BME280;17546;42.674;23.284;2023-11-22T02:13:35;93946.81;;;14.93;45.97
30819;BME280;17546;42.674;23.284;2023-11-22T02:16:02;93917.06;;;14.75;46.16
30819;BME280;17546;42.674;23.284;2023-11-22T02:18:29;93890.50;;;14.74;45.84
30819;BME280;17546;42.674;23.284;2023-11-22T02:20:54;93926.38;;;14.98;45.85
30819;BME280;17546;42.674;23.284;2023-11-22T02:23:20;93943.94;;;15.06;45.92
30819;BME280;17546;42.674;23.284;2023-11-22T02:25:46;93910.56;;;14.93;45.61
30819;BME280;17546;42.674;23.284;2023-11-22T02:28:12;93927.19;;;15.06;45.51
30819;BME280;17546;42.674;23.284;2023-11-22T02:30:38;93962.28;;;15.23;45.76
30819;BME280;17546;42.674;23.284;2023-11-22T02:33:04;93947.94;;;14.98;45.88
30819;BME280;17546;42.674;23.284;2023-11-22T02:35:33;93942.84;;;15.09;45.68
30819;BME280;17546;42.674;23.284;2023-11-22T02:37:59;93944.34;;;15.11;45.85
30819;BME280;17546;42.674;23.284;2023-11-22T02:40:25;93950.91;;;15.21;46.05
30819;BME280;17546;42.674;23.284;2023-11-22T02:42:52;93942.13;;;15.17;45.88
30819;BME280;17546;42.674;23.284;2023-11-22T02:45:32;93930.97;;;15.17;45.97
30819;BME280;17546;42.674;23.284;2023-11-22T02:47:58;93934.03;;;15.26;45.94
30819;BME280;17546;42.674;23.284;2023-11-22T02:50:27;93919.78;;;15.09;45.93
30819;BME280;17546;42.674;23.284;2023-11-22T02:52:52;93916.91;;;15.01;45.88
30819;BME280;17546;42.674;23.284;2023-11-22T02:55:18;93946.47;;;15.25;45.58
30819;BME280;17546;42.674;23.284;2023-11-22T02:57:45;93913.06;;;15.04;45.35
30819;BME280;17546;42.674;23.284;2023-11-22T03:00:11;93912.00;;;14.86;45.64
30819;BME280;17546;42.674;23.284;2023-11-22T03:02:42;93941.47;;;15.24;45.58
30819;BME280;17546;42.674;23.284;2023-11-22T03:05:08;93956.41;;;15.34;45.53
30819;BME280;17546;42.674;23.284;2023-11-22T03:07:38;93938.47;;;15.22;45.47
30819;BME280;17546;42.674;23.284;2023-11-22T03:10:05;93922.22;;;15.13;45.59
30819;BME280;17546;42.674;23.284;2023-11-22T03:12:33;93920.72;;;15.12;45.42
30819;BME280;17546;42.674;23.284;2023-11-22T03:14:59;93942.13;;;15.38;45.47
30819;BME280;17546;42.674;23.284;2023-11-22T03:17:28;93912.03;;;15.15;45.65
30819;BME280;17546;42.674;23.284;2023-11-22T03:19:54;93910.56;;;15.22;45.45
30819;BME280;17546;42.674;23.284;2023-11-22T03:22:23;93916.56;;;15.26;45.19
30819;BME280;17546;42.674;23.284;2023-11-22T03:24:49;93937.78;;;15.29;44.88
30819;BME280;17546;42.674;23.284;2023-11-22T03:27:14;93922.06;;;15.18;45.24
30819;BME280;17546;42.674;23.284;2023-11-22T03:29:40;93921.72;;;15.22;45.46
30819;BME280;17546;42.674;23.284;2023-11-22T03:32:06;93934.78;;;15.27;45.19
30819;BME280;17546;42.674;23.284;2023-11-22T03:34:31;93927.84;;;15.20;45.55
30819;BME280;17546;42.674;23.284;2023-11-22T03:36:57;93923.19;;;15.15;45.80
30819;BME280;17546;42.674;23.284;2023-11-22T03:39:22;93919.44;;;15.13;45.64
30819;BME280;17546;42.674;23.284;2023-11-22T03:41:48;93947.50;;;15.36;45.64
30819;BME280;17546;42.674;23.284;2023-11-22T03:44:13;93927.00;;;15.33;45.37
30819;BME280;17546;42.674;23.284;2023-11-22T03:46:39;93925.13;;;15.28;45.43
30819;BME280;17546;42.674;23.284;2023-11-22T03:49:05;93954.63;;;15.44;45.83
30819;BME280;17546;42.674;23.284;2023-11-22T03:51:35;93943.53;;;15.52;45.41
30819;BME280;17546;42.674;23.284;2023-11-22T03:54:01;93955.22;;;15.50;45.69
30819;BME280;17546;42.674;23.284;2023-11-22T03:56:28;93922.13;;;15.26;45.78
30819;BME280;17546;42.674;23.284;2023-11-22T03:58:54;93925.13;;;15.28;45.87
30819;BME280;17546;42.674;23.284;2023-11-22T04:01:19;93964.09;;;15.41;45.99
30819;BME280;17546;42.674;23.284;2023-11-22T04:03:46;93964.31;;;15.43;46.13
30819;BME280;17546;42.674;23.284;2023-11-22T04:06:16;93961.09;;;15.39;46.01
30819;BME280;17546;42.674;23.284;2023-11-22T04:08:45;93933.19;;;15.11;46.18
30819;BME280;17546;42.674;23.284;2023-11-22T04:11:14;93970.81;;;15.46;46.04
30819;BME280;17546;42.674;23.284;2023-11-22T04:13:40;93962.94;;;15.37;46.23
30819;BME280;17546;42.674;23.284;2023-11-22T04:16:09;93940.66;;;15.16;45.88
30819;BME280;17546;42.674;23.284;2023-11-22T04:18:38;93979.50;;;15.35;46.19
30819;BME280;17546;42.674;23.284;2023-11-22T04:21:03;93983.50;;;15.26;46.12
30819;BME280;17546;42.674;23.284;2023-11-22T04:23:31;93988.94;;;15.32;45.99
30819;BME280;17546;42.674;23.284;2023-11-22T04:25:57;93980.03;;;15.12;46.17
30819;BME280;17546;42.674;23.284;2023-11-22T04:28:24;93944.22;;;14.95;45.85
30819;BME280;17546;42.674;23.284;2023-11-22T04:30:50;93987.69;;;14.91;46.86
30819;BME280;17546;42.674;23.284;2023-11-22T04:33:17;94003.72;;;15.19;46.11
30819;BME280;17546;42.674;23.284;2023-11-22T04:35:43;93939.31;;;14.88;46.21
30819;BME280;17546;42.674;23.284;2023-11-22T04:38:08;94004.03;;;15.36;46.01
30819;BME280;17546;42.674;23.284;2023-11-22T04:40:34;93975.44;;;15.15;46.21
30819;BME280;17546;42.674;23.284;2023-11-22T04:42:59;93970.03;;;15.17;45.99
30819;BME280;17546;42.674;23.284;2023-11-22T04:45:25;93992.97;;;15.23;46.02
30819;BME280;17546;42.674;23.284;2023-11-22T04:47:50;93963.03;;;15.02;46.25
30819;BME280;17546;42.674;23.284;2023-11-22T04:50:16;94015.19;;;15.36;46.19
30819;BME280;17546;42.674;23.284;2023-11-22T04:52:41;94015.06;;;15.21;46.37
30819;BME280;17546;42.674;23.284;2023-11-22T04:55:07;94029.50;;;15.12;46.58
30819;BME280;17546;42.674;23.284;2023-11-22T04:57:33;94020.66;;;15.00;46.74
30819;BME280;17546;42.674;23.284;2023-11-22T04:59:58;94027.75;;;15.22;46.51
30819;BME280;17546;42.674;23.284;2023-11-22T05:02:26;94035.44;;;15.08;46.37
30819;BME280;17546;42.674;23.284;2023-11-22T05:04:52;94016.50;;;14.93;46.36
30819;BME280;17546;42.674;23.284;2023-11-22T05:07:18;94045.91;;;15.15;46.30
30819;BME280;17546;42.674;23.284;2023-11-22T05:09:44;94056.91;;;15.21;46.44
30819;BME280;17546;42.674;23.284;2023-11-22T05:12:10;94005.56;;;14.95;46.19
30819;BME280;17546;42.674;23.284;2023-11-22T05:14:37;94057.75;;;15.29;46.54
30819;BME280;17546;42.674;23.284;2023-11-22T05:17:03;94059.31;;;15.38;46.18
30819;BME280;17546;42.674;23.284;2023-11-22T05:19:30;94069.53;;;15.35;46.50
30819;BME280;17546;42.674;23.284;2023-11-22T05:21:55;94062.84;;;15.38;46.44
30819;BME280;17546;42.674;23.284;2023-11-22T05:24:21;94076.53;;;15.28;47.19
30819;BME280;17546;42.674;23.284;2023-11-22T05:26:46;94036.50;;;15.05;47.19
30819;BME280;17546;42.674;23.284;2023-11-22T05:29:12;94025.50;;;14.99;47.28
30819;BME280;17546;42.674;23.284;2023-11-22T05:31:37;94053.91;;;15.19;47.21
30819;BME280;17546;42.674;23.284;2023-11-22T05:34:03;94093.47;;;15.52;46.94
30819;BME280;17546;42.674;23.284;2023-11-22T05:36:29;94074.38;;;15.35;47.17
30819;BME280;17546;42.674;23.284;2023-11-22T05:38:55;94093.75;;;15.40;47.17
30819;BME280;17546;42.674;23.284;2023-11-22T05:41:24;94107.63;;;15.54;47.54
30819;BME280;17546;42.674;23.284;2023-11-22T05:43:53;94089.69;;;15.41;47.80
30819;BME280;17546;42.674;23.284;2023-11-22T05:46:19;94084.47;;;15.45;47.49
30819;BME280;17546;42.674;23.284;2023-11-22T05:48:50;94064.06;;;15.29;47.71
30819;BME280;17546;42.674;23.284;2023-11-22T05:51:16;94105.00;;;15.48;48.17
30819;BME280;17546;42.674;23.284;2023-11-22T05:53:42;94089.78;;;15.36;48.22
30819;BME280;17546;42.674;23.284;2023-11-22T05:56:07;94115.66;;;15.57;47.62
30819;BME280;17546;42.674;23.284;2023-11-22T05:58:34;94092.31;;;15.47;47.96
30819;BME280;17546;42.674;23.284;2023-11-22T06:01:04;94123.47;;;15.72;47.60
30819;BME280;17546;42.674;23.284;2023-11-22T06:03:31;94135.69;;;15.69;47.71
30819;BME280;17546;42.674;23.284;2023-11-22T06:05:57;94112.25;;;15.51;48.01
30819;BME280;17546;42.674;23.284;2023-11-22T06:08:25;94142.78;;;15.70;48.13
30819;BME280;17546;42.674;23.284;2023-11-22T06:10:52;94074.22;;;15.19;48.17
30819;BME280;17546;42.674;23.284;2023-11-22T06:13:19;94123.69;;;15.61;48.10
30819;BME280;17546;42.674;23.284;2023-11-22T06:15:45;94124.03;;;15.57;48.05
30819;BME280;17546;42.674;23.284;2023-11-22T06:18:12;94159.69;;;15.85;47.85
30819;BME280;17546;42.674;23.284;2023-11-22T06:20:39;94107.00;;;15.47;48.00
30819;BME280;17546;42.674;23.284;2023-11-22T06:23:05;94162.28;;;15.83;48.12
30819;BME280;17546;42.674;23.284;2023-11-22T06:25:30;94124.72;;;15.50;48.37
30819;BME280;17546;42.674;23.284;2023-11-22T06:27:56;94166.44;;;15.90;47.68
30819;BME280;17546;42.674;23.284;2023-11-22T06:30:21;94137.63;;;15.74;47.53
30819;BME280;17546;42.674;23.284;2023-11-22T06:32:49;94159.69;;;15.85;47.75
30819;BME280;17546;42.674;23.284;2023-11-22T06:35:14;94131.06;;;15.72;47.94
30819;BME280;17546;42.674;23.284;2023-11-22T06:37:40;94145.09;;;15.79;47.73
30819;BME280;17546;42.674;23.284;2023-11-22T06:40:06;94101.16;;;15.38;48.25
30819;BME280;17546;42.674;23.284;2023-11-22T06:42:33;94134.84;;;15.61;48.43
30819;BME280;17546;42.674;23.284;2023-11-22T06:44:59;94154.19;;;15.72;48.10
30819;BME280;17546;42.674;23.284;2023-11-22T06:47:26;94153.28;;;15.77;48.06
30819;BME280;17546;42.674;23.284;2023-11-22T06:49:52;94180.59;;;15.92;48.21
30819;BME280;17546;42.674;23.284;2023-11-22T06:52:18;94181.88;;;15.91;48.03
30819;BME280;17546;42.674;23.284;2023-11-22T06:54:44;94195.91;;;15.99;47.99
30819;BME280;17546;42.674;23.284;2023-11-22T06:57:10;94178.13;;;15.88;48.16
30819;BME280;17546;42.674;23.284;2023-11-22T06:59:35;94177.22;;;15.94;48.36
30819;BME280;17546;42.674;23.284;2023-11-22T07:02:01;94152.44;;;15.69;48.31
30819;BME280;17546;42.674;23.284;2023-11-22T07:04:27;94179.44;;;15.87;48.53
30819;BME280;17546;42.674;23.284;2023-11-22T07:06:54;94178.63;;;15.79;48.71
30819;BME280;17546;42.674;23.284;2023-11-22T07:09:19;94214.16;;;16.00;48.74
30819;BME280;17546;42.674;23.284;2023-11-22T07:11:45;94178.94;;;15.76;48.72
30819;BME280;17546;42.674;23.284;2023-11-22T07:14:10;94213.09;;;16.03;48.68
30819;BME280;17546;42.674;23.284;2023-11-22T07:16:36;94205.09;;;16.07;48.28
30819;BME280;17546;42.674;23.284;2023-11-22T07:19:03;94203.84;;;16.16;48.07
30819;BME280;17546;42.674;23.284;2023-11-22T07:21:29;94169.41;;;15.92;48.19
30819;BME280;17546;42.674;23.284;2023-11-22T07:23:57;94209.44;;;16.16;48.04
30819;BME280;17546;42.674;23.284;2023-11-22T07:26:24;94214.38;;;16.23;47.97
30819;BME280;17546;42.674;23.284;2023-11-22T07:28:52;94221.44;;;16.24;48.02
30819;BME280;17546;42.674;23.284;2023-11-22T07:31:17;94201.03;;;16.08;48.14
30819;BME280;17546;42.674;23.284;2023-11-22T07:33:43;94221.91;;;16.36;47.96
30819;BME280;17546;42.674;23.284;2023-11-22T07:36:08;94193.84;;;16.20;48.14
30819;BME280;17546;42.674;23.284;2023-11-22T07:38:34;94222.88;;;16.38;48.08
30819;BME280;17546;42.674;23.284;2023-11-22T07:41:00;94218.50;;;16.29;48.12
30819;BME280;17546;42.674;23.284;2023-11-22T07:43:25;94197.03;;;16.24;47.67
30819;BME280;17546;42.674;23.284;2023-11-22T07:45:51;94235.41;;;16.45;47.59
30819;BME280;17546;42.674;23.284;2023-11-22T07:48:17;94190.78;;;16.10;47.90
30819;BME280;17546;42.674;23.284;2023-11-22T07:50:43;94221.97;;;16.43;48.01
30819;BME280;17546;42.674;23.284;2023-11-22T07:53:14;94204.75;;;16.31;47.84
30819;BME280;17546;42.674;23.284;2023-11-22T07:55:40;94219.31;;;16.38;47.78
30819;BME280;17546;42.674;23.284;2023-11-22T07:58:07;94224.47;;;16.33;47.89
30819;BME280;17546;42.674;23.284;2023-11-22T08:00:33;94232.94;;;16.41;47.63
30819;BME280;17546;42.674;23.284;2023-11-22T08:03:02;94185.59;;;16.15;47.28
30819;BME280;17546;42.674;23.284;2023-11-22T08:05:32;94191.19;;;16.15;47.26
30819;BME280;17546;42.674;23.284;2023-11-22T08:08:04;94206.78;;;16.31;47.44
30819;BME280;17546;42.674;23.284;2023-11-22T08:10:36;94237.00;;;16.40;47.44
30819;BME280;17546;42.674;23.284;2023-11-22T08:13:02;94250.38;;;16.55;47.24
30819;BME280;17546;42.674;23.284;2023-11-22T08:15:28;94208.09;;;16.30;47.96
30819;BME280;17546;42.674;23.284;2023-11-22T08:17:54;94246.63;;;16.52;47.83
30819;BME280;17546;42.674;23.284;2023-11-22T08:20:19;94248.84;;;16.25;47.53
30819;BME280;17546;42.674;23.284;2023-11-22T08:22:45;94230.47;;;16.38;46.90
30819;BME280;17546;42.674;23.284;2023-11-22T08:25:11;94240.91;;;16.58;47.02
30819;BME280;17546;42.674;23.284;2023-11-22T08:27:40;94245.88;;;16.52;47.50
30819;BME280;17546;42.674;23.284;2023-11-22T08:30:07;94235.97;;;16.51;47.59
30819;BME280;17546;42.674;23.284;2023-11-22T08:32:41;94250.56;;;16.57;47.64
30819;BME280;17546;42.674;23.284;2023-11-22T08:35:11;94226.03;;;16.42;47.74
30819;BME280;17546;42.674;23.284;2023-11-22T08:37:38;94264.63;;;16.65;47.74
30819;BME280;17546;42.674;23.284;2023-11-22T08:40:06;94260.50;;;16.66;47.89
30819;BME280;17546;42.674;23.284;2023-11-22T08:42:32;94263.09;;;16.64;47.76
30819;BME280;17546;42.674;23.284;2023-11-22T08:44:57;94235.50;;;16.31;47.73
30819;BME280;17546;42.674;23.284;2023-11-22T08:47:23;94258.44;;;16.66;47.08
30819;BME280;17546;42.674;23.284;2023-11-22T08:49:48;94220.53;;;16.50;46.79
30819;BME280;17546;42.674;23.284;2023-11-22T08:52:14;94260.84;;;16.62;46.89
30819;BME280;17546;42.674;23.284;2023-11-22T08:54:39;94248.31;;;16.56;46.96
30819;BME280;17546;42.674;23.284;2023-11-22T08:57:08;94209.44;;;16.37;47.31
30819;BME280;17546;42.674;23.284;2023-11-22T08:59:33;94272.13;;;16.78;47.61
30819;BME280;17546;42.674;23.284;2023-11-22T09:02:04;94275.50;;;16.76;47.95
30819;BME280;17546;42.674;23.284;2023-11-22T09:04:29;94254.91;;;16.66;47.69
30819;BME280;17546;42.674;23.284;2023-11-22T09:06:57;94276.19;;;16.69;47.99
30819;BME280;17546;42.674;23.284;2023-11-22T09:09:23;94281.47;;;16.30;48.19
30819;BME280;17546;42.674;23.284;2023-11-22T09:11:56;94287.81;;;16.31;48.14
30819;BME280;17546;42.674;23.284;2023-11-22T09:14:22;94271.69;;;16.16;48.18
30819;BME280;17546;42.674;23.284;2023-11-22T09:16:50;94268.75;;;16.22;47.70
30819;BME280;17546;42.674;23.284;2023-11-22T09:19:23;94298.72;;;16.42;48.04
30819;BME280;17546;42.674;23.284;2023-11-22T09:21:49;94272.69;;;16.26;48.07
30819;BME280;17546;42.674;23.284;2023-11-22T09:24:15;94299.81;;;16.39;48.34
30819;BME280;17546;42.674;23.284;2023-11-22T09:26:40;94267.47;;;16.23;48.07
30819;BME280;17546;42.674;23.284;2023-11-22T09:29:08;94304.72;;;16.25;48.46
30819;BME280;17546;42.674;23.284;2023-11-22T09:31:35;94297.16;;;16.33;48.16
30819;BME280;17546;42.674;23.284;2023-11-22T09:34:01;94300.56;;;16.40;48.19
30819;BME280;17546;42.674;23.284;2023-11-22T09:36:29;94301.78;;;16.52;48.22
30819;BME280;17546;42.674;23.284;2023-11-22T09:38:57;94297.28;;;16.49;47.90
30819;BME280;17546;42.674;23.284;2023-11-22T09:41:23;94304.38;;;16.50;48.29
30819;BME280;17546;42.674;23.284;2023-11-22T09:43:50;94304.59;;;16.52;48.04
30819;BME280;17546;42.674;23.284;2023-11-22T09:46:16;94302.06;;;16.41;48.18
30819;BME280;17546;42.674;23.284;2023-11-22T09:48:47;94293.47;;;16.39;48.02
30819;BME280;17546;42.674;23.284;2023-11-22T09:51:27;94268.00;;;16.21;47.91
30819;BME280;17546;42.674;23.284;2023-11-22T09:53:57;94273.09;;;16.30;48.25
30819;BME280;17546;42.674;23.284;2023-11-22T09:56:30;94297.41;;;16.64;48.23
30819;BME280;17546;42.674;23.284;2023-11-22T09:58:58;94253.25;;;16.42;48.23
30819;BME280;17546;42.674;23.284;2023-11-22T10:01:26;94281.31;;;16.57;48.28
30819;BME280;17546;42.674;23.284;2023-11-22T10:03:54;94291.13;;;16.71;48.38
30819;BME280;17546;42.674;23.284;2023-11-22T10:06:20;94290.25;;;16.56;48.60
30819;BME280;17546;42.674;23.284;2023-11-22T10:08:46;94276.50;;;16.37;48.42
30819;BME280;17546;42.674;23.284;2023-11-22T10:11:18;94265.25;;;16.50;47.98
30819;BME280;17546;42.674;23.284;2023-11-22T10:13:47;94286.34;;;16.80;47.74
30819;BME280;17546;42.674;23.284;2023-11-22T10:16:13;94244.56;;;16.53;47.84
30819;BME280;17546;42.674;23.284;2023-11-22T10:18:44;94248.22;;;16.69;47.61
30819;BME280;17546;42.674;23.284;2023-11-22T10:21:27;94271.56;;;16.50;48.07
30819;BME280;17546;42.674;23.284;2023-11-22T10:23:56;94274.28;;;16.64;47.75
30819;BME280;17546;42.674;23.284;2023-11-22T10:26:22;94271.47;;;16.85;47.29
30819;BME280;17546;42.674;23.284;2023-11-22T10:28:51;94251.97;;;16.71;47.70
30819;BME280;17546;42.674;23.284;2023-11-22T10:31:18;94261.06;;;16.93;47.77
30819;BME280;17546;42.674;23.284;2023-11-22T10:33:44;94268.75;;;16.71;48.01
30819;BME280;17546;42.674;23.284;2023-11-22T10:36:09;94263.44;;;16.31;49.02
30819;BME280;17546;42.674;23.284;2023-11-22T10:38:36;94288.84;;;16.91;48.11
30819;BME280;17546;42.674;23.284;2023-11-22T10:41:05;94278.84;;;17.03;47.76
30819;BME280;17546;42.674;23.284;2023-11-22T10:43:31;94257.38;;;16.98;47.35
30819;BME280;17546;42.674;23.284;2023-11-22T10:46:01;94293.00;;;17.34;47.22
30819;BME280;17546;42.674;23.284;2023-11-22T10:48:27;94256.28;;;17.01;47.08
30819;BME280;17546;42.674;23.284;2023-11-22T10:50:55;94292.41;;;17.28;47.10
30819;BME280;17546;42.674;23.284;2023-11-22T10:53:31;94291.53;;;17.41;47.01
30819;BME280;17546;42.674;23.284;2023-11-22T10:56:04;94275.06;;;17.29;46.80
30819;BME280;17546;42.674;23.284;2023-11-22T10:58:32;94258.22;;;17.22;46.94
30819;BME280;17546;42.674;23.284;2023-11-22T11:00:58;94280.34;;;17.41;46.76
30819;BME280;17546;42.674;23.284;2023-11-22T11:03:26;94286.66;;;17.33;46.59
30819;BME280;17546;42.674;23.284;2023-11-22T11:06:02;94282.03;;;17.44;46.84
30819;BME280;17546;42.674;23.284;2023-11-22T11:08:30;94267.88;;;17.05;47.06
30819;BME280;17546;42.674;23.284;2023-11-22T11:10:57;94282.22;;;17.38;46.58
30819;BME280;17546;42.674;23.284;2023-11-22T11:13:24;94294.22;;;17.54;46.31
30819;BME280;17546;42.674;23.284;2023-11-22T11:15:51;94297.63;;;17.68;46.12
30819;BME280;17546;42.674;23.284;2023-11-22T11:18:18;94299.72;;;17.75;46.16
30819;BME280;17546;42.674;23.284;2023-11-22T11:20:56;94290.94;;;17.71;46.16
30819;BME280;17546;42.674;23.284;2023-11-22T11:23:28;94256.09;;;17.43;46.61
30819;BME280;17546;42.674;23.284;2023-11-22T11:25:56;94300.38;;;17.52;46.51
30819;BME280;17546;42.674;23.284;2023-11-22T11:28:26;94278.09;;;17.39;46.39
30819;BME280;17546;42.674;23.284;2023-11-22T11:30:52;94287.41;;;17.34;46.70
30819;BME280;17546;42.674;23.284;2023-11-22T11:33:26;94295.00;;;17.62;46.03
30819;BME280;17546;42.674;23.284;2023-11-22T11:35:51;94272.00;;;17.56;46.02
30819;BME280;17546;42.674;23.284;2023-11-22T11:38:20;94282.41;;;17.40;47.08
30819;BME280;17546;42.674;23.284;2023-11-22T11:40:47;94282.28;;;17.53;46.73
30819;BME280;17546;42.674;23.284;2023-11-22T11:43:13;94281.34;;;17.51;46.74
30819;BME280;17546;42.674;23.284;2023-11-22T11:45:41;94299.31;;;17.71;46.88
30819;BME280;17546;42.674;23.284;2023-11-22T11:48:15;94299.28;;;17.63;47.31
30819;BME280;17546;42.674;23.284;2023-11-22T11:50:41;94265.09;;;17.49;46.96
30819;BME280;17546;42.674;23.284;2023-11-22T11:53:07;94306.22;;;17.70;46.97
30819;BME280;17546;42.674;23.284;2023-11-22T11:55:33;94296.88;;;17.67;46.97
30819;BME280;17546;42.674;23.284;2023-11-22T11:58:04;94290.34;;;17.65;47.25
30819;BME280;17546;42.674;23.284;2023-11-22T12:00:31;94286.75;;;17.49;47.17
30819;BME280;17546;42.674;23.284;2023-11-22T12:02:59;94291.75;;;17.43;47.19
30819;BME280;17546;42.674;23.284;2023-11-22T12:05:24;94263.75;;;17.06;47.25
30819;BME280;17546;42.674;23.284;2023-11-22T12:07:53;94301.59;;;17.36;47.67
30819;BME280;17546;42.674;23.284;2023-11-22T12:10:18;94269.56;;;17.08;47.76
30819;BME280;17546;42.674;23.284;2023-11-22T12:12:44;94264.38;;;16.84;47.87
30819;BME280;17546;42.674;23.284;2023-11-22T12:15:13;94307.19;;;17.00;48.59
30819;BME280;17546;42.674;23.284;2023-11-22T12:17:40;94304.44;;;17.07;48.38
30819;BME280;17546;42.674;23.284;2023-11-22T12:20:13;94330.13;;;17.27;48.24
30819;BME280;17546;42.674;23.284;2023-11-22T12:22:41;94330.16;;;17.34;48.00
30819;BME280;17546;42.674;23.284;2023-11-22T12:25:07;94295.72;;;17.19;47.94
30819;BME280;17546;42.674;23.284;2023-11-22T12:27:32;94282.59;;;17.06;48.21
30819;BME280;17546;42.674;23.284;2023-11-22T12:29:58;94272.47;;;16.95;48.85
30819;BME280;17546;42.674;23.284;2023-11-22T12:32:25;94335.19;;;17.36;48.80
30819;BME280;17546;42.674;23.284;2023-11-22T12:34:51;94308.44;;;17.20;48.85
30819;BME280;17546;42.674;23.284;2023-11-22T12:37:20;94305.94;;;17.08;48.50
30819;BME280;17546;42.674;23.284;2023-11-22T12:39:47;94323.91;;;17.21;48.49
30819;BME280;17546;42.674;23.284;2023-11-22T12:42:13;94314.25;;;17.29;48.29
30819;BME280;17546;42.674;23.284;2023-11-22T12:44:49;94340.69;;;17.49;48.16
30819;BME280;17546;42.674;23.284;2023-11-22T12:47:15;94347.31;;;17.31;48.47
30819;BME280;17546;42.674;23.284;2023-11-22T12:49:47;94355.19;;;17.40;48.24